Time;durP1;ratioP1;P1;durP2;ratioP2;P2;SDS_P1;SDS_P2;PMS_P1;PMS_P2;Temp;Humidity;BMP_temperature;BMP_pressure;BME280_temperature;BME280_humidity;BME280_pressure;Samples;Min_cycle;Max_cycle;Signal;HPM_P1;HPM_P2
2021/10/28 00:14:09;;;;;;;41.75;28.17;;;;;;;4.12;72.41;101798.53;1744704;81;20976;-77
2021/10/28 00:16:36;;;;;;;44.53;26.00;;;;;;;4.10;72.18;101793.80;1745239;81;20877;-77
2021/10/28 00:19:04;;;;;;;45.10;25.40;;;;;;;4.07;71.90;101788.63;1744972;82;20909;-77
2021/10/28 00:21:37;;;;;;;45.48;26.45;;;;;;;4.03;71.80;101788.28;1744644;81;21064;-77
2021/10/28 00:24:08;;;;;;;43.45;27.48;;;;;;;4.01;71.98;101783.55;1744755;81;20857;-76
2021/10/28 00:26:37;;;;;;;42.93;26.02;;;;;;;3.99;71.72;101785.31;1744527;81;20857;-76
2021/10/28 00:29:07;;;;;;;44.50;26.60;;;;;;;3.94;71.12;101780.19;1744476;81;21368;-77
2021/10/28 00:31:36;;;;;;;41.00;26.37;;;;;;;3.90;70.91;101783.25;1744652;81;20897;-75
2021/10/28 00:34:03;;;;;;;46.50;27.32;;;;;;;3.87;70.79;101783.30;1744500;81;21086;-76
2021/10/28 00:36:31;;;;;;;51.13;26.68;;;;;;;3.83;70.58;101780.77;1744386;81;21492;-76
2021/10/28 00:38:58;;;;;;;45.03;26.17;;;;;;;3.76;70.30;101783.00;1744674;81;20897;-75
2021/10/28 00:41:26;;;;;;;45.85;26.17;;;;;;;3.68;70.55;101778.77;1745628;81;20893;-75
2021/10/28 00:43:57;;;;;;;47.85;29.20;;;;;;;3.62;70.67;101780.14;1744654;81;21011;-77
2021/10/28 00:46:26;;;;;;;49.53;28.92;;;;;;;3.58;71.11;101781.50;1744683;80;21080;-75
2021/10/28 00:48:53;;;;;;;47.88;30.43;;;;;;;3.57;71.37;101778.50;1744451;81;20905;-76
2021/10/28 00:51:23;;;;;;;50.10;30.88;;;;;;;3.55;70.78;101781.09;1744565;81;20913;-75
2021/10/28 00:53:51;;;;;;;50.63;29.60;;;;;;;3.52;70.58;101781.15;1744508;81;20980;-76
2021/10/28 00:56:19;;;;;;;58.55;33.20;;;;;;;3.50;70.16;101782.91;1755755;80;20896;-76
2021/10/28 00:58:47;;;;;;;62.88;34.08;;;;;;;3.46;70.02;101779.92;1757847;80;21126;-76
2021/10/28 01:01:14;;;;;;;71.42;37.48;;;;;;;3.41;69.98;101784.31;1757757;81;20889;-77
2021/10/28 01:03:41;;;;;;;52.85;31.37;;;;;;;3.32;69.88;101783.53;1757759;81;20920;-76
2021/10/28 01:06:09;;;;;;;51.98;30.45;;;;;;;3.24;69.80;101785.78;1757798;81;20904;-76
2021/10/28 01:08:39;;;;;;;56.90;30.90;;;;;;;3.16;70.26;101783.70;1757891;81;20890;-75
2021/10/28 01:11:08;;;;;;;53.65;28.75;;;;;;;3.08;70.50;101784.64;1757881;81;21331;-75
2021/10/28 01:13:36;;;;;;;46.10;27.20;;;;;;;2.99;70.94;101782.15;1757941;80;21350;-75
2021/10/28 01:16:04;;;;;;;56.37;29.57;;;;;;;2.95;71.48;101790.81;1757814;80;20983;-75
2021/10/28 01:18:32;;;;;;;45.05;28.35;;;;;;;2.92;71.96;101787.41;1758009;81;20940;-76
2021/10/28 01:20:59;;;;;;;53.30;29.37;;;;;;;2.89;72.13;101789.16;1757906;80;21022;-76
2021/10/28 01:23:26;;;;;;;50.43;26.20;;;;;;;2.90;72.22;101790.02;1758201;81;22167;-76
2021/10/28 01:25:59;;;;;;;53.90;28.00;;;;;;;2.91;72.16;101785.23;1757706;80;20920;-75
2021/10/28 01:28:29;;;;;;;46.68;27.13;;;;;;;2.93;72.24;101786.09;1758095;81;20844;-77
2021/10/28 01:31:00;;;;;;;54.13;27.82;;;;;;;2.94;72.11;101772.72;1758079;81;20929;-76
2021/10/28 01:33:27;;;;;;;51.40;29.48;;;;;;;2.94;72.25;101774.02;1759117;81;20856;-76
2021/10/28 01:35:55;;;;;;;61.48;31.42;;;;;;;2.93;72.11;101778.76;1757890;80;21554;-75
2021/10/28 01:38:24;;;;;;;59.58;32.60;;;;;;;2.90;71.98;101779.65;1757672;81;21434;-76
2021/10/28 01:41:01;;;;;;;46.20;30.08;;;;;;;2.87;71.81;101780.98;1757744;80;21485;-75
2021/10/28 01:43:29;;;;;;;54.00;30.85;;;;;;;2.82;71.60;101780.15;1758030;81;20888;-75
2021/10/28 01:45:56;;;;;;;50.58;30.30;;;;;;;2.76;71.52;101782.37;1758156;80;20932;-76
2021/10/28 01:48:23;;;;;;;45.70;27.75;;;;;;;2.72;71.60;101784.56;1757901;81;21132;-77
2021/10/28 01:50:50;;;;;;;49.03;26.15;;;;;;;2.68;71.58;101779.83;1757853;81;21019;-77
2021/10/28 01:53:17;;;;;;;53.48;29.10;;;;;;;2.64;71.72;101785.91;1758147;81;21454;-77
2021/10/28 01:55:44;;;;;;;54.63;28.02;;;;;;;2.62;72.16;101790.27;1757713;80;20897;-77
2021/10/28 01:58:11;;;;;;;49.08;29.45;;;;;;;2.60;72.57;101789.83;1758183;80;20881;-77
2021/10/28 02:00:41;;;;;;;60.17;30.32;;;;;;;2.59;72.61;101792.01;1757876;81;21222;-76
2021/10/28 02:03:08;;;;;;;50.23;28.45;;;;;;;2.57;72.56;101792.02;1758086;81;20888;-76
2021/10/28 02:05:36;;;;;;;48.35;28.55;;;;;;;2.55;72.26;101800.67;1757863;81;20988;-76
2021/10/28 02:08:04;;;;;;;48.90;28.23;;;;;;;2.54;72.09;101810.62;1757789;80;20971;-75
2021/10/28 02:10:32;;;;;;;49.18;27.40;;;;;;;2.51;71.89;101811.47;1757949;81;21378;-75
2021/10/28 02:13:00;;;;;;;57.62;28.07;;;;;;;2.47;71.70;101808.06;1757684;80;21101;-76
2021/10/28 02:15:27;;;;;;;59.63;28.17;;;;;;;2.45;71.68;101814.98;1757939;81;21391;-77
2021/10/28 02:17:54;;;;;;;72.65;33.98;;;;;;;2.44;71.66;101817.56;1757726;81;20837;-76
2021/10/28 02:20:21;;;;;;;75.92;31.87;;;;;;;2.42;71.78;101810.25;1757998;81;21429;-75
2021/10/28 02:22:49;;;;;;;64.05;33.02;;;;;;;2.40;71.83;101814.16;1757883;81;20912;-76
2021/10/28 02:25:16;;;;;;;58.63;30.85;;;;;;;2.38;71.77;101816.31;1758540;80;21971;-76
2021/10/28 02:27:46;;;;;;;61.73;32.80;;;;;;;2.34;71.84;101813.34;1757163;81;20881;-76
2021/10/28 02:30:14;;;;;;;68.92;34.53;;;;;;;2.33;72.51;101810.31;1758011;81;20897;-75
2021/10/28 02:32:42;;;;;;;63.70;32.73;;;;;;;2.31;72.62;101802.55;1757722;81;21548;-75
2021/10/28 02:35:09;;;;;;;72.42;33.67;;;;;;;2.32;72.79;101816.37;1757965;80;20980;-76
2021/10/28 02:37:37;;;;;;;60.88;32.35;;;;;;;2.33;73.23;101824.55;1758040;80;21157;-74
2021/10/28 02:40:05;;;;;;;126.65;79.45;;;;;;;2.36;73.73;101829.28;1758033;80;20983;-75
2021/10/28 02:42:32;;;;;;;78.15;39.98;;;;;;;2.38;73.75;101821.48;1758000;81;20881;-75
2021/10/28 02:45:01;;;;;;;66.97;36.93;;;;;;;2.42;74.23;101829.25;1757842;81;20940;-76
2021/10/28 02:47:28;;;;;;;68.90;33.53;;;;;;;2.43;74.40;101825.78;1758061;81;20877;-75
2021/10/28 02:49:57;;;;;;;79.75;35.73;;;;;;;2.45;74.08;101825.34;1758217;81;21091;-76
2021/10/28 02:52:24;;;;;;;59.20;33.65;;;;;;;2.45;73.43;101820.59;1757925;81;20916;-76
2021/10/28 02:54:56;;;;;;;78.90;39.53;;;;;;;2.44;73.26;101821.02;1758291;81;20979;-75
2021/10/28 02:57:20;;;;;;;70.47;37.23;;;;;;;2.43;73.52;101821.89;1744186;81;20960;-74
2021/10/28 02:59:47;;;;;;;76.77;34.43;;;;;;;2.42;73.65;101820.60;1744615;80;20929;-75
2021/10/28 03:02:14;;;;;;;66.95;35.03;;;;;;;2.43;73.90;101823.63;1744682;82;21477;-74
2021/10/28 03:04:42;;;;;;;73.78;37.98;;;;;;;2.44;73.69;101824.89;1744633;82;20936;-76
2021/10/28 03:07:09;;;;;;;77.60;39.33;;;;;;;2.46;73.57;101826.19;1744662;81;20865;-75
2021/10/28 03:09:36;;;;;;;57.27;35.43;;;;;;;2.49;73.34;101831.36;1744690;82;20857;-77
2021/10/28 03:12:04;;;;;;;61.83;35.85;;;;;;;2.52;73.40;101831.77;1744617;81;20983;-77
2021/10/28 03:17:13;;;;;;;69.15;39.33;;;;;;;2.54;73.83;101832.18;1745310;81;21386;-75
2021/10/28 03:25:33;;;;;;;68.83;39.53;;;;;;;2.54;73.87;101832.63;1742981;81;20967;-76
2021/10/28 03:27:25;;;;;;;68.07;37.73;;;;;;;2.54;75.08;101832.18;1744692;81;21390;-77
2021/10/28 03:29:52;;;;;;;80.85;38.80;;;;;;;2.58;74.95;101837.77;1744498;82;21406;-76
2021/10/28 03:32:20;;;;;;;79.03;40.00;;;;;;;2.61;74.73;101839.03;1744784;81;20857;-77
2021/10/28 03:34:48;;;;;;;81.92;41.20;;;;;;;2.66;74.42;101838.99;1744547;81;21459;-75
2021/10/28 03:42:45;;;;;;;74.35;43.78;;;;;;;2.72;73.16;101838.95;1744838;80;20968;-77
2021/10/28 03:55:28;;;;;;;90.95;43.25;;;;;;;2.58;73.01;101839.06;1744414;81;21696;-76
2021/10/28 04:28:53;;;;;;;93.72;43.70;;;;;;;2.45;73.06;101846.05;1752631;80;20947;-76
2021/10/28 04:29:35;;;;;;;89.65;44.18;;;;;;;2.46;73.19;101849.05;1749908;81;20944;-78
2021/10/28 04:32:05;;;;;;;98.00;45.92;;;;;;;2.46;73.21;101845.16;1753566;81;21109;-92
2021/10/28 04:34:34;;;;;;;90.22;43.78;;;;;;;2.48;73.10;101849.89;1753931;80;20951;-96
2021/10/28 04:37:14;;;;;;;91.60;44.98;;;;;;;2.50;73.07;101856.38;1754178;81;20901;-96
2021/10/28 04:39:42;;;;;;;104.27;44.03;;;;;;;2.50;73.10;101862.84;1753941;81;21011;-92
2021/10/28 04:42:09;;;;;;;104.35;51.00;;;;;;;2.52;73.29;101868.02;1753531;80;21038;-88
2021/10/28 04:44:37;;;;;;;102.62;49.05;;;;;;;2.51;73.39;101858.52;1753774;82;21100;-84
2021/10/28 04:47:04;;;;;;;107.85;47.75;;;;;;;2.53;73.58;101855.05;1753978;81;20927;-87
2021/10/28 04:49:32;;;;;;;116.60;46.75;;;;;;;2.56;73.48;101860.66;1753421;82;20925;-89
2021/10/28 04:51:59;;;;;;;106.52;44.55;;;;;;;2.60;73.46;101858.04;1753067;81;20849;-86
2021/10/28 04:54:26;;;;;;;115.50;49.05;;;;;;;2.66;73.71;101858.41;1753478;80;20849;-87
2021/10/28 04:56:53;;;;;;;116.80;44.90;;;;;;;2.74;74.01;101863.55;1748753;80;21128;-88
2021/10/28 04:59:20;;;;;;;97.10;46.85;;;;;;;2.80;74.24;101854.01;1745804;81;20990;-85
2021/10/28 05:01:47;;;;;;;101.35;48.02;;;;;;;2.87;74.68;101843.16;1746998;81;20877;-90
2021/10/28 05:04:14;;;;;;;103.53;44.27;;;;;;;2.96;74.95;101852.14;1746226;81;20964;-86
2021/10/28 05:06:43;;;;;;;127.40;45.15;;;;;;;3.05;74.75;101862.88;1745069;81;20972;-83
2021/10/28 05:09:10;;;;;;;112.68;47.33;;;;;;;3.13;74.85;101857.16;1744743;81;21813;-85
2021/10/28 05:11:37;;;;;;;94.13;43.50;;;;;;;3.20;74.78;101863.15;1744800;81;20889;-85
2021/10/28 05:14:05;;;;;;;105.12;48.38;;;;;;;3.28;75.27;101872.58;1744706;81;20928;-88
2021/10/28 05:16:32;;;;;;;112.03;49.58;;;;;;;3.40;75.66;101865.13;1744688;81;20940;-85
2021/10/28 05:18:59;;;;;;;98.92;49.45;;;;;;;3.53;75.66;101865.84;1745722;81;20880;-87
2021/10/28 05:21:26;;;;;;;128.47;52.58;;;;;;;3.63;75.59;101870.06;1745722;82;21110;-93
2021/10/28 05:23:54;;;;;;;99.62;48.15;;;;;;;3.72;75.87;101879.03;1745613;82;21382;-90
2021/10/28 05:26:20;;;;;;;103.72;49.35;;;;;;;3.82;75.50;101876.33;1745809;82;20972;-91
2021/10/28 05:28:48;;;;;;;130.03;55.28;;;;;;;3.93;75.84;101880.95;1745280;81;21661;-90
2021/10/28 05:31:15;;;;;;;117.55;50.52;;;;;;;4.04;75.67;101880.38;1747500;81;20905;-89
2021/10/28 05:33:42;;;;;;;118.50;50.92;;;;;;;4.14;75.24;101883.30;1747886;78;21124;-89
2021/10/28 05:36:09;;;;;;;96.55;46.70;;;;;;;4.25;74.92;101882.30;1747958;81;20858;-88
2021/10/28 05:38:36;;;;;;;119.33;47.03;;;;;;;4.37;74.58;101887.31;1746707;82;21540;-91
2021/10/28 05:41:03;;;;;;;141.73;54.63;;;;;;;4.49;74.31;101884.98;1746484;81;20972;-92
2021/10/28 05:43:31;;;;;;;128.93;51.65;;;;;;;4.63;73.89;101890.84;1746426;81;20904;-91
2021/10/28 05:45:58;;;;;;;156.97;58.13;;;;;;;4.78;73.52;101884.57;1747408;81;21102;-91
2021/10/28 05:48:25;;;;;;;140.90;55.50;;;;;;;4.99;73.47;101889.86;1746823;81;20988;-91
2021/10/28 05:50:52;;;;;;;126.18;55.70;;;;;;;5.22;73.16;101884.70;1747189;81;20992;-91
2021/10/28 05:53:21;;;;;;;130.25;56.28;;;;;;;5.55;72.84;101885.84;1747780;79;20917;-91
2021/10/28 05:55:49;;;;;;;112.83;47.48;;;;;;;6.04;73.02;101893.17;1747990;79;20861;-92
2021/10/28 05:58:16;;;;;;;105.95;55.63;;;;;;;6.50;71.91;101888.28;1747477;81;21128;-90
2021/10/28 06:00:42;;;;;;;113.52;63.75;;;;;;;7.01;71.68;101894.47;1746978;82;20913;-86
2021/10/28 06:03:12;;;;;;;72.45;41.73;;;;;;;7.40;70.73;101889.11;1747179;81;20937;-86
2021/10/28 06:05:39;;;;;;;83.55;46.05;;;;;;;7.65;69.72;101884.95;1744564;81;20897;-85
2021/10/28 06:08:06;;;;;;;91.92;45.60;;;;;;;7.79;69.30;101891.09;1744953;81;20893;-84
2021/10/28 06:10:33;;;;;;;93.33;44.98;;;;;;;7.81;68.29;101894.52;1745142;80;21096;-84
2021/10/28 06:13:04;;;;;;;82.35;47.38;;;;;;;7.77;67.92;101904.64;1745613;81;20999;-85
2021/10/28 06:15:31;;;;;;;67.55;42.25;;;;;;;7.74;68.03;101907.81;1744489;81;20853;-76
2021/10/28 06:18:00;;;;;;;67.37;41.42;;;;;;;7.75;68.40;101915.58;1744577;81;20961;-77
2021/10/28 06:20:27;;;;;;;70.92;39.58;;;;;;;7.81;68.76;101906.28;1744560;81;20956;-76
2021/10/28 06:22:54;;;;;;;65.57;36.17;;;;;;;7.89;68.85;101892.98;1744726;81;21482;-77
2021/10/28 06:25:21;;;;;;;54.58;35.05;;;;;;;7.99;68.89;101892.30;1744569;81;20923;-75
2021/10/28 06:27:48;;;;;;;58.68;40.95;;;;;;;8.08;69.00;101885.50;1744640;81;20889;-78
2021/10/28 06:30:15;;;;;;;55.83;36.98;;;;;;;8.14;69.03;101863.55;1744533;81;20968;-75
2021/10/28 06:32:48;;;;;;;57.40;37.73;;;;;;;8.18;69.05;101866.47;1744499;81;20977;-77
2021/10/28 06:35:14;;;;;;;59.50;38.55;;;;;;;8.20;69.17;101885.12;1744685;81;21158;-77
2021/10/28 06:37:47;;;;;;;61.53;37.55;;;;;;;8.28;69.14;101903.20;1744555;81;21050;-75
2021/10/28 06:40:12;;;;;;;59.15;37.35;;;;;;;8.35;68.91;101911.72;1744452;81;20909;-77
2021/10/28 06:42:39;;;;;;;56.00;37.48;;;;;;;8.40;68.83;101902.84;1744737;82;20941;-76
2021/10/28 06:45:06;;;;;;;70.72;42.93;;;;;;;8.45;68.78;101909.28;1745264;82;21043;-76
2021/10/28 06:47:35;;;;;;;72.60;41.10;;;;;;;8.54;68.85;101910.72;1745322;81;21307;-77
2021/10/28 06:50:06;;;;;;;90.55;50.03;;;;;;;8.64;68.75;101913.02;1744927;81;20889;-76
2021/10/28 06:53:22;;;;;;;70.10;42.33;;;;;;;8.76;68.76;101914.84;1744594;81;21418;-79
2021/10/28 06:55:06;;;;;;;61.48;39.27;;;;;;;8.90;68.73;101908.73;1709809;81;20940;-76
2021/10/28 06:57:58;;;;;;;59.53;40.73;;;;;;;9.05;68.68;101910.85;1744532;80;21477;-78
2021/10/28 07:02:50;;;;;;;57.00;38.30;;;;;;;9.38;67.96;101909.30;1744925;81;20929;-83
2021/10/28 07:05:18;;;;;;;63.55;37.78;;;;;;;9.48;67.56;101906.77;1744953;81;20865;-83
2021/10/28 07:07:45;;;;;;;55.95;35.25;;;;;;;9.54;67.22;101902.64;1744872;81;21011;-85
2021/10/28 07:10:18;;;;;;;57.25;34.88;;;;;;;9.59;66.91;101896.39;1745246;80;20861;-83
2021/10/28 07:13:06;;;;;;;54.63;33.10;;;;;;;9.59;66.70;101883.30;1744893;81;21149;-86
2021/10/28 07:15:39;;;;;;;58.75;35.35;;;;;;;9.61;66.62;101881.02;1744431;81;20932;-83
2021/10/28 07:21:03;;;;;;;50.83;34.15;;;;;;;9.66;66.43;101876.46;1744717;81;21034;-84
2021/10/28 07:26:04;;;;;;;56.75;34.92;;;;;;;9.73;66.20;101864.84;1745234;81;21125;-86
2021/10/28 07:28:37;;;;;;;56.15;36.33;;;;;;;9.76;66.06;101870.45;1743905;81;20897;-84
2021/10/28 07:58:10;;;;;;;93.55;62.27;;;;;;;11.23;62.57;101851.11;1753665;80;20963;-81
2021/10/28 08:06:01;;;;;;;71.53;53.38;;;;;;;11.50;60.80;101838.10;1758127;81;21425;-82
2021/10/28 08:14:00;;;;;;;69.37;44.80;;;;;;;11.69;60.12;101828.92;1757927;81;20943;-82
2021/10/28 08:29:22;;;;;;;67.75;39.58;;;;;;;12.51;58.82;101829.09;1758090;80;20995;-79
2021/10/28 08:31:53;;;;;;;57.27;35.30;;;;;;;13.07;58.00;101830.66;1759558;80;21121;-80
2021/10/28 08:34:23;;;;;;;30.75;21.82;;;;;;;13.67;56.63;101829.77;1758023;80;21423;-80
2021/10/28 08:36:52;;;;;;;34.00;24.07;;;;;;;14.29;54.54;101824.61;1758443;81;20869;-78
2021/10/28 08:39:20;;;;;;;43.00;27.45;;;;;;;14.80;53.00;101823.51;1758648;81;21421;-79
2021/10/28 08:41:49;;;;;;;35.43;21.60;;;;;;;15.31;51.52;101819.55;1757863;81;20841;-79
2021/10/28 08:44:19;;;;;;;35.50;23.98;;;;;;;15.77;50.12;101819.87;1758302;80;21076;-82
2021/10/28 08:46:49;;;;;;;38.33;26.82;;;;;;;16.10;49.25;101811.59;1758211;80;20932;-79
2021/10/28 08:49:29;;;;;;;37.15;27.67;;;;;;;16.42;48.64;101813.93;1757751;81;20869;-78
2021/10/28 08:52:15;;;;;;;38.80;25.97;;;;;;;16.77;47.91;101802.80;1757362;81;20964;-75
2021/10/28 08:54:55;;;;;;;30.25;23.12;;;;;;;17.10;47.18;101800.19;1755879;81;20885;-75
2021/10/28 08:57:22;;;;;;;28.00;21.65;;;;;;;17.31;46.08;101792.53;1756474;81;21103;-75
2021/10/28 09:24:58;;;;;;;31.90;22.75;;;;;;;18.52;43.23;101776.30;1757996;81;21162;-75
2021/10/28 09:27:31;;;;;;;22.50;17.65;;;;;;;18.91;42.19;101772.45;1757583;81;21010;-76
2021/10/28 09:30:10;;;;;;;20.52;17.07;;;;;;;19.23;41.32;101772.63;1757744;81;21449;-75
2021/10/28 09:32:41;;;;;;;19.77;15.05;;;;;;;19.55;40.58;101772.38;1757348;80;20916;-76
2021/10/28 09:35:27;;;;;;;20.80;13.75;;;;;;;19.87;40.12;101763.99;1757710;81;21435;-74
2021/10/28 09:52:26;;;;;;;18.32;15.25;;;;;;;20.28;38.00;101753.11;1758095;81;21146;-76
2021/10/28 09:54:39;;;;;;;17.80;15.10;;;;;;;20.23;37.36;101751.31;1750418;80;20873;-76
2021/10/28 09:59:55;;;;;;;19.30;14.58;;;;;;;20.29;37.46;101747.28;1757672;81;21359;-76
2021/10/28 10:02:37;;;;;;;16.12;13.10;;;;;;;20.56;37.15;101747.27;1758205;81;20944;-75
2021/10/28 10:05:17;;;;;;;15.03;12.58;;;;;;;20.71;36.64;101751.34;1757830;81;21422;-76
2021/10/28 10:07:45;;;;;;;16.12;13.70;;;;;;;20.67;36.37;101733.42;1758089;81;20939;-77
2021/10/28 10:12:26;;;;;;;14.75;10.98;;;;;;;20.41;36.82;101732.08;1854439;77;22667;-76
2021/10/28 10:14:53;;;;;;;16.15;10.65;;;;;;;20.20;36.87;101726.25;1822246;78;20943;-75
2021/10/28 10:17:20;;;;;;;14.13;10.08;;;;;;;20.01;36.97;101724.28;1822144;78;21111;-77
2021/10/28 10:19:50;;;;;;;14.93;11.70;;;;;;;19.80;37.47;101716.22;1822580;78;21548;-76
2021/10/28 10:22:22;;;;;;;12.43;10.25;;;;;;;19.68;37.59;101711.39;1821891;78;20935;-75
2021/10/28 10:24:59;;;;;;;10.95;9.70;;;;;;;19.54;37.67;101709.02;1816298;78;21048;-76
2021/10/28 11:28:29;;;;;;;21.30;16.00;;;;;;;16.46;44.25;101655.23;1821586;78;22917;-77
2021/10/28 12:22:15;;;;;;;24.95;16.93;;;;;;;14.86;48.02;101615.36;1822577;78;20870;-84
2021/10/28 12:44:24;;;;;;;23.52;16.95;;;;;;;14.45;49.71;101617.84;1822200;78;20915;-86
2021/10/28 12:55:41;;;;;;;24.87;17.57;;;;;;;14.39;50.05;101627.47;1822435;78;21129;-90
2021/10/28 13:34:54;;;;;;;27.25;21.02;;;;;;;14.09;51.20;101623.05;1825064;78;20887;-80
2021/10/28 13:48:07;;;;;;;29.12;21.65;;;;;;;13.97;51.57;101618.52;1824980;78;21483;-90
2021/10/28 13:50:23;;;;;;;39.70;25.30;;;;;;;13.89;51.88;101621.58;1825375;77;20970;-82
2021/10/28 15:28:16;;;;;;;56.42;32.58;;;;;;;13.02;55.85;101620.23;1825339;78;21539;-80
2021/10/28 15:31:15;;;;;;;48.00;29.63;;;;;;;13.03;56.02;101625.91;1824592;78;20971;-81
2021/10/28 15:33:55;;;;;;;49.77;29.67;;;;;;;13.05;56.17;101627.15;1821731;78;20974;-73
2021/10/28 15:38:38;;;;;;;46.40;28.80;;;;;;;13.07;56.33;101625.25;1824775;78;20962;-80
2021/10/28 16:22:04;;;;;;;71.00;41.13;;;;;;;13.01;57.05;101640.09;1824515;78;21424;-78
2021/10/28 16:24:34;;;;;;;68.20;41.50;;;;;;;12.99;57.13;101634.05;1824785;77;20931;-80
2021/10/28 16:27:02;;;;;;;84.95;50.33;;;;;;;12.98;57.16;101639.80;1824758;77;20876;-78
2021/10/28 16:29:29;;;;;;;83.60;48.48;;;;;;;12.97;57.26;101643.81;1825209;78;21789;-83
2021/10/28 16:31:56;;;;;;;90.75;51.90;;;;;;;12.95;57.33;101644.36;1825134;77;20927;-81
2021/10/28 16:34:25;;;;;;;111.15;63.68;;;;;;;12.93;57.32;101646.23;1824967;77;20930;-80
2021/10/28 16:36:52;;;;;;;111.15;55.83;;;;;;;12.92;57.36;101641.43;1825038;77;20923;-81
2021/10/28 16:39:19;;;;;;;88.65;46.73;;;;;;;12.90;57.51;101644.61;1825655;78;20883;-81
2021/10/28 16:41:52;;;;;;;94.10;51.15;;;;;;;12.89;57.62;101648.16;1825273;78;21764;-76
2021/10/28 16:44:19;;;;;;;79.30;44.80;;;;;;;12.85;57.71;101651.44;1825109;78;20903;-81
2021/10/28 16:46:46;;;;;;;73.80;42.62;;;;;;;12.84;57.73;101643.14;1825001;77;20927;-80
2021/10/28 16:49:13;;;;;;;84.28;45.00;;;;;;;12.82;57.75;101645.00;1825293;77;20963;-81
2021/10/28 16:51:41;;;;;;;76.05;45.98;;;;;;;12.79;57.75;101645.17;1825319;77;20911;-82
2021/10/28 16:54:09;;;;;;;68.78;45.85;;;;;;;12.76;57.84;101651.93;1825080;78;21126;-83
2021/10/28 16:56:36;;;;;;;70.10;41.13;;;;;;;12.76;57.91;101653.25;1825139;77;21372;-82
2021/10/28 16:59:04;;;;;;;62.98;41.98;;;;;;;12.73;58.01;101647.28;1825278;78;20950;-82
2021/10/28 17:01:31;;;;;;;68.52;43.23;;;;;;;12.71;58.07;101644.72;1825035;77;20923;-81
2021/10/28 17:03:58;;;;;;;68.45;41.40;;;;;;;12.68;58.08;101642.73;1825245;78;21298;-82
2021/10/28 17:06:25;;;;;;;63.35;37.78;;;;;;;12.65;58.14;101639.80;1824939;78;21110;-80
2021/10/28 17:08:56;;;;;;;61.92;39.65;;;;;;;12.61;58.16;101636.94;1824868;77;20875;-82
2021/10/28 17:11:21;;;;;;;62.73;38.38;;;;;;;12.57;58.24;101643.28;1824569;78;20915;-80
2021/10/28 17:13:49;;;;;;;64.45;39.53;;;;;;;12.52;58.40;101647.95;1822364;78;21353;-79
2021/10/28 17:16:16;;;;;;;66.72;40.63;;;;;;;12.47;58.52;101648.16;1821506;78;20943;-79
2021/10/28 17:18:44;;;;;;;67.32;40.28;;;;;;;12.44;58.69;101650.95;1821297;78;21500;-79
2021/10/28 17:21:11;;;;;;;64.95;38.92;;;;;;;12.42;58.77;101644.92;1821292;78;20914;-80
2021/10/28 17:23:41;;;;;;;61.00;39.05;;;;;;;12.40;58.84;101649.41;1821280;78;20887;-80
2021/10/28 17:26:07;;;;;;;58.45;36.30;;;;;;;12.38;58.95;101648.19;1821179;78;20935;-79
2021/10/28 17:28:35;;;;;;;54.42;35.40;;;;;;;12.37;59.07;101648.26;1821510;78;20888;-82
2021/10/28 17:31:03;;;;;;;49.80;34.45;;;;;;;12.36;59.15;101653.11;1821188;78;21094;-82
2021/10/28 17:33:33;;;;;;;46.48;32.70;;;;;;;12.34;59.20;101650.59;1821611;78;20876;-80
2021/10/28 17:36:00;;;;;;;46.98;29.75;;;;;;;12.34;59.32;101656.28;1822269;78;21106;-81
2021/10/28 17:38:28;;;;;;;37.65;24.47;;;;;;;12.31;59.48;101660.40;1821321;78;21531;-79
2021/10/28 17:40:55;;;;;;;36.20;22.85;;;;;;;12.29;59.80;101666.20;1821319;78;20978;-80
2021/10/28 17:43:24;;;;;;;31.97;20.40;;;;;;;12.25;60.02;101676.05;1821413;78;21559;-82
2021/10/28 17:45:56;;;;;;;30.30;19.73;;;;;;;12.22;60.27;101677.02;1821658;78;20840;-78
2021/10/28 17:48:20;;;;;;;26.33;18.90;;;;;;;12.20;60.33;101675.40;1820757;78;20833;-79
2021/10/28 17:50:47;;;;;;;24.32;17.48;;;;;;;12.16;60.50;101676.03;1821259;78;20927;-80
2021/10/28 17:53:14;;;;;;;22.93;16.65;;;;;;;12.14;60.78;101674.37;1821518;78;20989;-80
2021/10/28 17:55:40;;;;;;;21.45;15.60;;;;;;;12.10;60.87;101680.27;1821618;78;21101;-79
2021/10/28 17:58:07;;;;;;;22.58;15.58;;;;;;;12.08;61.28;101674.23;1821275;78;20900;-77
2021/10/28 18:00:34;;;;;;;20.37;15.93;;;;;;;12.08;61.34;101680.81;1821669;78;20888;-79
2021/10/28 18:03:03;;;;;;;26.80;16.82;;;;;;;12.06;61.42;101680.03;1821367;78;21120;-78
2021/10/28 18:05:30;;;;;;;24.80;16.20;;;;;;;12.03;61.49;101685.45;1821355;78;20871;-78
2021/10/28 18:07:57;;;;;;;24.47;16.62;;;;;;;12.00;61.54;101700.89;1821282;78;21922;-78
2021/10/28 18:10:25;;;;;;;23.73;16.75;;;;;;;11.96;61.68;101701.98;1821561;78;20880;-79
2021/10/28 18:12:52;;;;;;;25.05;17.20;;;;;;;11.92;61.91;101696.48;1821631;78;20995;-77
2021/10/28 18:15:19;;;;;;;35.75;26.57;;;;;;;11.90;62.04;101702.28;1824679;77;20924;-76
2021/10/28 18:17:47;;;;;;;38.40;27.02;;;;;;;11.89;62.17;101698.39;1824862;78;20998;-76
2021/10/28 18:20:14;;;;;;;32.55;21.42;;;;;;;11.87;62.21;101693.17;1824809;78;21125;-76
2021/10/28 18:22:43;;;;;;;29.85;20.45;;;;;;;11.88;62.22;101698.02;1824754;77;21282;-76
2021/10/28 18:25:10;;;;;;;32.85;21.37;;;;;;;11.87;62.26;101705.00;1824769;78;20926;-77
2021/10/28 18:27:40;;;;;;;26.68;18.70;;;;;;;11.86;62.28;101707.25;1824358;77;20907;-77
2021/10/28 18:30:11;;;;;;;25.55;17.87;;;;;;;11.85;62.36;101707.31;1825280;77;21518;-75
2021/10/28 18:32:41;;;;;;;34.33;18.02;;;;;;;11.86;62.40;101709.04;1824785;78;20847;-78
2021/10/28 18:35:09;;;;;;;25.80;18.20;;;;;;;11.89;62.41;101707.59;1825123;77;20875;-78
2021/10/28 18:37:36;;;;;;;31.25;18.23;;;;;;;11.91;62.48;101701.81;1824812;77;20953;-76
2021/10/28 18:40:06;;;;;;;38.50;19.60;;;;;;;11.91;62.65;101710.53;1825059;77;21013;-78
2021/10/28 18:42:35;;;;;;;24.20;18.00;;;;;;;11.92;62.68;101714.05;1824889;77;20979;-74
2021/10/28 18:45:03;;;;;;;27.25;18.02;;;;;;;11.93;62.69;101712.63;1825326;78;21475;-81
2021/10/28 18:47:30;;;;;;;32.55;19.75;;;;;;;11.95;62.73;101717.36;1824377;77;20907;-81
2021/10/28 18:49:58;;;;;;;31.37;19.55;;;;;;;11.96;62.72;101723.45;1824892;77;21013;-83
2021/10/28 18:52:25;;;;;;;30.72;19.70;;;;;;;11.96;62.74;101735.28;1825228;77;21349;-81
2021/10/28 18:54:52;;;;;;;31.52;21.35;;;;;;;11.96;62.77;101733.97;1825005;77;21053;-81
2021/10/28 18:57:21;;;;;;;30.97;21.48;;;;;;;11.96;62.81;101732.66;1824918;78;21109;-81
2021/10/28 18:59:48;;;;;;;27.15;20.45;;;;;;;11.95;62.84;101731.81;1825314;77;21408;-84
2021/10/28 19:02:16;;;;;;;30.88;20.85;;;;;;;11.95;62.86;101731.81;1824762;77;20974;-81
2021/10/28 19:04:43;;;;;;;33.63;20.80;;;;;;;11.94;62.95;101734.51;1824924;77;20939;-81
2021/10/28 19:07:11;;;;;;;29.70;20.90;;;;;;;11.92;63.00;101734.59;1824766;78;20910;-80
2021/10/28 19:09:39;;;;;;;31.20;21.68;;;;;;;11.93;63.09;101740.70;1823746;78;21141;-80
2021/10/28 19:12:06;;;;;;;29.02;21.75;;;;;;;11.94;63.15;101739.33;1825266;78;20994;-83
2021/10/28 19:14:36;;;;;;;34.05;21.95;;;;;;;11.97;63.21;101743.58;1822499;78;20990;-81
2021/10/28 19:17:03;;;;;;;37.53;23.42;;;;;;;11.98;63.23;101740.89;1821709;78;20998;-82
2021/10/28 19:19:31;;;;;;;33.00;22.65;;;;;;;12.01;63.21;101744.67;1821685;78;20883;-80
2021/10/28 19:21:59;;;;;;;38.67;24.32;;;;;;;12.03;63.18;101745.45;1822022;78;21556;-80
2021/10/28 19:24:25;;;;;;;34.05;22.70;;;;;;;12.05;63.12;101748.45;1821753;78;20959;-78
2021/10/28 19:26:52;;;;;;;32.13;24.67;;;;;;;12.04;63.09;101747.61;1821747;78;20837;-78
2021/10/28 19:29:21;;;;;;;57.27;26.80;;;;;;;12.03;63.19;101754.66;1789878;78;20923;-77
2021/10/28 19:31:54;;;;;;;35.75;25.88;;;;;;;12.02;63.24;101748.14;1821196;78;21020;-78
2021/10/28 19:34:18;;;;;;;35.48;25.72;;;;;;;11.99;63.31;101753.56;1821396;78;21792;-79